Share

Dashkhovuz, Turkmenistan

6:07 AM TMT on April 24, 2014 (GMT +0500)
Urgench (UTNU) Elev 322 ft | 41.58 °N, 60.64 °E | Change Station

Current weather conditions updated 37 minutes ago

Overcast
Overcast
59 °F
Feels Like 59 °F
N
4
Wind Variable Wind from ENE
Sunrise 6:07 AM
Sunset 7:50 PM
Moon Waning Crescent

Today is forecast to be Much Cooler than yesterday. Cloudy with rain.

Pressure 29.65 in
Visibility 6.2 miles
Clouds Few 6600 ft
Overcast 10000 ft
Dew Point 36 °F
Humidity 42%
Rainfall 0.00 in
Snow Depth Not available.
UV 0 out of 16
Pollen Not available.
Air Quality Not available.
Flu Activity Not available.
METAR UTNU 240030Z 06002MPS 9999 FEW066CB OVC100 15/02 Q1004 R13/CLRD60 NOSIG

More Conditions Fewer Conditions

Pressure 29.65 in
Visibility 6.2 miles
Clouds Few 6600 ft
Overcast 10000 ft
Dew Point 36 °F
Humidity 42%
Rainfall 0.00 in
Snow Depth Not available.
UV 0 out of 16
Pollen Not available.
Air Quality Not available.
Flu Activity Not available.
METAR UTNU 240030Z 06002MPS 9999 FEW066CB OVC100 15/02 Q1004 R13/CLRD60 NOSIG

More Conditions Fewer Conditions

10-Day Weather Forecast

Almanac

Astronomy

Apr. 24, 2014 Rise Set
Actual Time 6:07 AM TMT 7:50 PM TMT
Civil Twilight 5:37 AM TMT 8:20 PM TMT
Nautical Twilight 5:02 AM TMT 8:56 PM TMT
Astronomical Twilight 4:23 AM TMT 9:35 PM TMT
Moon 3:07 AM TMT 2:34 PM TMT
Length of Visible Light 14h 42m
Length of Day
13h 43m
Tomorrow will be 2m 33s longer.
Waning Crescent, 31% of the Moon is Illuminated
Apr 23
Waning Crescent
Apr 29
New
May 6
First Quarter
May 14
Full
May 21
Last Quarter

Yesterday's Extremes

Country Highs Country Lows

Community

  • Nestled In
    Nestled In
  • Stunning Sunrise
    Stunning Sunrise
  • spring flowers
    spring flowers
  • Earth Day Spectrum Ove' Blue
    Earth Day Spectrum Ove' Blue
  • BARN B&W
    BARN B&W

WunderPhotos

Upload Photos

1,704,482 photos uploaded!

Nearby

Snow Depth

Not available.

Coastal Water Temperatures

Place Temperature
No Stations Reporting

Earthquake Activity

City Distance Mag. Time & Date
No recent earthquake activity has been reported nearby.
Minimum magnitude displayed is 2.5.

Nearby Weather Stations

There are no personal weather stations in this area.

What do you think?

We're not finished. Please let us know what you like, what you don't like, and what you are still missing.